Terminal Aerodrome Forecast
Issued by NWS

Home | Current Version | Previous Version | Text Only | Print | Product List | Glossary On
Versions: 1 2 3 4 5 6 7 8 9 10 11 12 13 14 15 16 17
395
FTPA31 PHFO 241120
TAFSTU
TAF
NSTU 241120Z 2412/2512 VRB06KT P6SM VCSH SCT015 SCT040 BKN100
     FM241800 31005KT P6SM VCSH SCT025 BKN045 BKN090
      TEMPO 2501/2505 3SM RA BR SCT015 BKN030 OVC090=

USA.gov is the U.S. government's official web portal to all federal, state and local government web resources and services.